createdAt,value
2023-06-29T00:00:44.801Z,1010.93
2023-06-29T00:01:45.564Z,1010.91
2023-06-29T00:02:44.880Z,1010.91
2023-06-29T00:03:44.899Z,1010.92
2023-06-29T00:04:44.763Z,1010.90
2023-06-29T00:05:45.052Z,1010.91
2023-06-29T00:06:44.730Z,1010.89
2023-06-29T00:07:44.723Z,1010.94
2023-06-29T00:08:45.500Z,1010.93
2023-06-29T00:09:44.703Z,1010.90
2023-06-29T00:10:44.693Z,1010.93
2023-06-29T00:11:44.677Z,1010.92
2023-06-29T00:12:44.675Z,1010.93
2023-06-29T00:13:44.680Z,1010.92
2023-06-29T00:14:44.649Z,1010.91
2023-06-29T00:15:44.947Z,1010.94
2023-06-29T00:16:44.616Z,1010.89
2023-06-29T00:17:44.644Z,1010.92
2023-06-29T00:18:44.624Z,1010.90
2023-06-29T00:19:44.628Z,1010.87
2023-06-29T00:20:44.577Z,1010.89
2023-06-29T00:21:44.564Z,1010.87
2023-06-29T00:22:44.555Z,1010.85
2023-06-29T00:23:44.549Z,1010.83
2023-06-29T00:24:44.535Z,1010.86
2023-06-29T00:25:44.683Z,1010.85
2023-06-29T00:26:44.507Z,1010.80
2023-06-29T00:27:44.491Z,1010.84
2023-06-29T00:28:44.498Z,1010.81
2023-06-29T00:29:44.496Z,1010.80
2023-06-29T00:30:44.485Z,1010.81
2023-06-29T00:31:44.447Z,1010.76
2023-06-29T00:32:44.488Z,1010.77
2023-06-29T00:33:44.469Z,1010.78
2023-06-29T00:34:44.452Z,1010.76
2023-06-29T00:35:44.729Z,1010.75
2023-06-29T00:36:44.395Z,1010.75
2023-06-29T00:37:44.382Z,1010.76
2023-06-29T00:38:44.386Z,1010.73
2023-06-29T00:39:44.373Z,1010.76
2023-06-29T00:40:44.356Z,1010.71
2023-06-29T00:41:44.336Z,1010.72
2023-06-29T00:42:44.328Z,1010.74
2023-06-29T00:43:44.315Z,1010.72
2023-06-29T00:44:44.325Z,1010.75
2023-06-29T00:45:44.566Z,1010.73
2023-06-29T00:46:44.321Z,1010.75
2023-06-29T00:47:44.296Z,1010.74
2023-06-29T00:48:44.258Z,1010.75
2023-06-29T00:49:44.243Z,1010.73
2023-06-29T00:50:44.285Z,1010.77
2023-06-29T00:51:44.220Z,1010.72
2023-06-29T00:52:44.215Z,1010.73
2023-06-29T00:53:44.213Z,1010.71
2023-06-29T00:54:44.190Z,1010.76
2023-06-29T00:55:44.545Z,1010.74
2023-06-29T00:56:44.197Z,1010.75
2023-06-29T00:57:44.174Z,1010.73
2023-06-29T00:58:44.158Z,1010.71
2023-06-29T00:59:44.130Z,1010.74
2023-06-29T01:00:44.145Z,1010.69
2023-06-29T01:01:44.113Z,1010.74
2023-06-29T01:02:44.239Z,1010.69
2023-06-29T01:03:44.132Z,1010.73
2023-06-29T01:04:44.080Z,1010.72
2023-06-29T01:05:44.340Z,1010.68
2023-06-29T01:06:44.079Z,1010.71
2023-06-29T01:07:44.058Z,1010.66
2023-06-29T01:08:44.063Z,1010.64
2023-06-29T01:09:44.025Z,1010.67
2023-06-29T01:10:44.014Z,1010.63
2023-06-29T01:11:44.007Z,1010.62
2023-06-29T01:12:43.996Z,1010.67
2023-06-29T01:13:43.979Z,1010.64
2023-06-29T01:14:43.996Z,1010.68
2023-06-29T01:15:44.183Z,1010.66
2023-06-29T01:16:44.037Z,1010.63
2023-06-29T01:17:43.961Z,1010.63
2023-06-29T01:18:43.930Z,1010.61
2023-06-29T01:19:43.916Z,1010.63
2023-06-29T01:20:43.933Z,1010.58
2023-06-29T01:21:43.893Z,1010.56
2023-06-29T01:22:43.955Z,1010.60
2023-06-29T01:23:43.882Z,1010.59
2023-06-29T01:24:43.861Z,1010.60
2023-06-29T01:25:44.936Z,1010.59
2023-06-29T01:26:43.842Z,1010.58
2023-06-29T01:27:43.862Z,1010.56
2023-06-29T01:28:43.820Z,1010.53
2023-06-29T01:29:43.816Z,1010.56
2023-06-29T01:30:43.819Z,1010.55
2023-06-29T01:31:43.796Z,1010.53
2023-06-29T01:32:43.810Z,1010.55
2023-06-29T01:33:43.763Z,1010.56
2023-06-29T01:34:43.756Z,1010.57
2023-06-29T01:35:44.060Z,1010.54
2023-06-29T01:36:43.725Z,1010.53
2023-06-29T01:37:43.765Z,1010.52
2023-06-29T01:38:43.726Z,1010.48
2023-06-29T01:39:43.693Z,1010.45
2023-06-29T01:40:43.745Z,1010.45
2023-06-29T01:41:43.673Z,1010.44
2023-06-29T01:42:43.668Z,1010.40
2023-06-29T01:43:43.664Z,1010.37
2023-06-29T01:44:43.654Z,1010.34
2023-06-29T01:45:43.805Z,1010.33
2023-06-29T01:46:43.670Z,1010.34
2023-06-29T01:47:43.692Z,1010.37
2023-06-29T01:48:43.598Z,1010.37
2023-06-29T01:49:43.586Z,1010.35
2023-06-29T01:50:43.600Z,1010.40
2023-06-29T01:51:43.557Z,1010.40
2023-06-29T01:52:43.583Z,1010.39
2023-06-29T01:53:43.537Z,1010.40
2023-06-29T01:54:43.575Z,1010.39
2023-06-29T01:55:43.792Z,1010.39
2023-06-29T01:56:43.509Z,1010.39
2023-06-29T01:57:43.494Z,1010.43
2023-06-29T01:58:43.480Z,1010.41
2023-06-29T01:59:43.496Z,1010.41
2023-06-29T02:00:43.473Z,1010.40
2023-06-29T02:01:43.545Z,1010.41
2023-06-29T02:02:43.623Z,1010.42
2023-06-29T02:03:43.596Z,1010.41
2023-06-29T02:04:43.442Z,1010.41
2023-06-29T02:05:43.780Z,1010.41
2023-06-29T02:06:43.438Z,1010.39
2023-06-29T02:07:43.378Z,1010.39
2023-06-29T02:08:43.380Z,1010.38
2023-06-29T02:09:43.369Z,1010.36
2023-06-29T02:10:43.370Z,1010.39
2023-06-29T02:11:43.332Z,1010.32
2023-06-29T02:12:43.329Z,1010.34
2023-06-29T02:13:43.313Z,1010.34
2023-06-29T02:14:43.325Z,1010.32
2023-06-29T02:15:43.464Z,1010.32
2023-06-29T02:16:43.289Z,1010.28
2023-06-29T02:17:43.318Z,1010.26
2023-06-29T02:18:43.258Z,1010.28
2023-06-29T02:19:43.255Z,1010.25
2023-06-29T02:20:43.253Z,1010.27
2023-06-29T02:21:43.226Z,1010.25
2023-06-29T02:22:43.240Z,1010.26
2023-06-29T02:23:43.200Z,1010.26
2023-06-29T02:24:43.209Z,1010.22
2023-06-29T02:25:43.539Z,1010.21
2023-06-29T02:26:43.194Z,1010.17
2023-06-29T02:27:43.165Z,1010.16
2023-06-29T02:28:43.152Z,1010.11
2023-06-29T02:29:43.151Z,1010.10
2023-06-29T02:30:43.128Z,1010.07
2023-06-29T02:31:43.126Z,1010.06
2023-06-29T02:32:43.215Z,1010.05
2023-06-29T02:33:43.104Z,1010.05
2023-06-29T02:34:43.102Z,1010.05
2023-06-29T02:35:43.462Z,1010.03
2023-06-29T02:36:43.059Z,1010.03
2023-06-29T02:37:43.063Z,1010.01
2023-06-29T02:38:43.059Z,1010.05
2023-06-29T02:39:43.037Z,1010.01
2023-06-29T02:40:43.013Z,1010.04
2023-06-29T02:41:43.004Z,1010.01
2023-06-29T02:42:43.022Z,1010.05
2023-06-29T02:43:42.982Z,1010.05
2023-06-29T02:44:42.994Z,1010.04
2023-06-29T02:45:43.337Z,1010.07
2023-06-29T02:46:43.085Z,1010.03
2023-06-29T02:47:42.990Z,1010.05
2023-06-29T02:48:42.961Z,1010.10
2023-06-29T02:49:42.912Z,1010.02
2023-06-29T02:50:42.951Z,1010.08
2023-06-29T02:51:42.900Z,1010.05
2023-06-29T02:52:42.885Z,1010.07
2023-06-29T02:53:42.870Z,1010.10
2023-06-29T02:54:42.879Z,1010.10
2023-06-29T02:55:43.181Z,1010.10
2023-06-29T02:56:42.866Z,1010.06
2023-06-29T02:57:42.827Z,1010.04
2023-06-29T02:58:42.863Z,1009.99
2023-06-29T02:59:42.805Z,1010.01
2023-06-29T03:00:42.909Z,1010.02
2023-06-29T03:01:42.782Z,1009.97
2023-06-29T03:02:42.888Z,1009.93
2023-06-29T03:03:42.809Z,1009.95
2023-06-29T03:04:42.751Z,1009.98
2023-06-29T03:05:43.083Z,1009.93
2023-06-29T03:06:42.729Z,1009.94
2023-06-29T03:07:42.720Z,1009.98
2023-06-29T03:08:42.723Z,1009.93
2023-06-29T03:09:42.690Z,1009.96
2023-06-29T03:10:42.797Z,1009.93
2023-06-29T03:11:42.685Z,1009.96
2023-06-29T03:12:42.661Z,1009.93
2023-06-29T03:13:42.669Z,1009.90
2023-06-29T03:14:43.091Z,1009.93
2023-06-29T03:15:43.095Z,1009.88
2023-06-29T03:16:42.680Z,1009.90
2023-06-29T03:17:42.656Z,1009.92
2023-06-29T03:18:42.604Z,1009.96
2023-06-29T03:19:42.622Z,1009.92
2023-06-29T03:20:42.613Z,1009.91
2023-06-29T03:21:42.574Z,1009.93
2023-06-29T03:22:42.552Z,1009.91
2023-06-29T03:23:42.540Z,1009.92
2023-06-29T03:24:42.580Z,1009.95
2023-06-29T03:25:42.784Z,1009.93
2023-06-29T03:26:42.506Z,1009.96
2023-06-29T03:27:42.493Z,1009.95
2023-06-29T03:28:42.489Z,1009.94
2023-06-29T03:29:42.487Z,1009.90
2023-06-29T03:30:42.539Z,1009.94
2023-06-29T03:31:42.466Z,1009.90
2023-06-29T03:32:42.488Z,1009.93
2023-06-29T03:33:42.433Z,1009.91
2023-06-29T03:34:42.438Z,1009.92
2023-06-29T03:35:42.849Z,1009.92
2023-06-29T03:36:42.410Z,1009.93
2023-06-29T03:37:42.404Z,1009.93
2023-06-29T03:38:42.422Z,1009.93
2023-06-29T03:39:42.362Z,1009.93
2023-06-29T03:40:42.361Z,1009.91
2023-06-29T03:41:42.338Z,1009.93
2023-06-29T03:42:42.330Z,1009.90
2023-06-29T03:43:42.337Z,1009.90
2023-06-29T03:44:42.339Z,1009.92
2023-06-29T03:45:42.695Z,1009.91
2023-06-29T03:46:42.308Z,1009.93
2023-06-29T03:47:42.353Z,1009.93
2023-06-29T03:48:42.334Z,1009.90
2023-06-29T03:49:42.250Z,1009.88
2023-06-29T03:50:42.258Z,1009.87
2023-06-29T03:51:42.250Z,1009.84
2023-06-29T03:52:42.233Z,1009.84
2023-06-29T03:53:42.223Z,1009.85
2023-06-29T03:54:42.202Z,1009.85
2023-06-29T03:55:42.414Z,1009.84
2023-06-29T03:56:42.201Z,1009.82
2023-06-29T03:57:42.163Z,1009.81
2023-06-29T03:58:42.167Z,1009.80
2023-06-29T03:59:42.146Z,1009.77
2023-06-29T04:00:42.132Z,1009.77
2023-06-29T04:01:42.164Z,1009.75
2023-06-29T04:02:42.223Z,1009.80
2023-06-29T04:03:42.202Z,1009.74
2023-06-29T04:04:42.093Z,1009.73
2023-06-29T04:05:42.389Z,1009.78
2023-06-29T04:06:42.074Z,1009.80
2023-06-29T04:07:42.057Z,1009.80
2023-06-29T04:08:42.052Z,1009.79
2023-06-29T04:09:42.029Z,1009.75
2023-06-29T04:10:42.062Z,1009.71
2023-06-29T04:11:42.007Z,1009.79
2023-06-29T04:12:41.996Z,1009.76
2023-06-29T04:13:41.998Z,1009.76
2023-06-29T04:14:41.974Z,1009.76
2023-06-29T04:15:42.301Z,1009.73
2023-06-29T04:16:42.009Z,1009.68
2023-06-29T04:17:41.984Z,1009.72
2023-06-29T04:18:41.953Z,1009.66
2023-06-29T04:19:41.919Z,1009.63
2023-06-29T04:20:41.939Z,1009.60
2023-06-29T04:21:41.907Z,1009.60
2023-06-29T04:22:41.895Z,1009.57
2023-06-29T04:23:41.877Z,1009.58
2023-06-29T04:24:41.868Z,1009.59
2023-06-29T04:25:42.161Z,1009.58
2023-06-29T04:26:41.862Z,1009.56
2023-06-29T04:27:41.839Z,1009.57
2023-06-29T04:28:41.816Z,1009.56
2023-06-29T04:29:41.807Z,1009.53
2023-06-29T04:30:41.879Z,1009.48
2023-06-29T04:31:41.785Z,1009.51
2023-06-29T04:32:41.826Z,1009.48
2023-06-29T04:33:41.780Z,1009.46
2023-06-29T04:34:41.771Z,1009.49
2023-06-29T04:35:42.240Z,1009.49
2023-06-29T04:36:41.723Z,1009.51
2023-06-29T04:37:41.978Z,1009.46
2023-06-29T04:38:41.703Z,1009.46
2023-06-29T04:39:41.696Z,1009.47
2023-06-29T04:40:41.765Z,1009.47
2023-06-29T04:41:41.675Z,1009.47
2023-06-29T04:42:41.660Z,1009.49
2023-06-29T04:43:41.677Z,1009.47
2023-06-29T04:44:41.641Z,1009.49
2023-06-29T04:45:41.804Z,1009.46
2023-06-29T04:46:41.848Z,1009.45
2023-06-29T04:47:41.651Z,1009.45
2023-06-29T04:48:41.594Z,1009.48
2023-06-29T04:49:41.628Z,1009.47
2023-06-29T04:50:41.700Z,1009.50
2023-06-29T04:51:41.567Z,1009.48
2023-06-29T04:52:41.561Z,1009.54
2023-06-29T04:53:41.537Z,1009.55
2023-06-29T04:54:41.536Z,1009.55
2023-06-29T04:55:41.641Z,1009.58
2023-06-29T04:56:41.511Z,1009.56
2023-06-29T04:57:41.494Z,1009.54
2023-06-29T04:58:41.481Z,1009.54
2023-06-29T04:59:41.473Z,1009.56
2023-06-29T05:00:41.484Z,1009.54
2023-06-29T05:01:41.483Z,1009.58
2023-06-29T05:02:41.506Z,1009.59
2023-06-29T05:03:41.512Z,1009.59
2023-06-29T05:04:41.418Z,1009.61
2023-06-29T05:05:41.930Z,1009.58
2023-06-29T05:06:41.419Z,1009.57
2023-06-29T05:07:41.392Z,1009.57
2023-06-29T05:08:41.386Z,1009.56
2023-06-29T05:09:41.403Z,1009.52
2023-06-29T05:10:41.365Z,1009.53
2023-06-29T05:11:41.342Z,1009.53
2023-06-29T05:12:41.324Z,1009.58
2023-06-29T05:13:41.321Z,1009.53
2023-06-29T05:14:41.307Z,1009.52
2023-06-29T05:15:41.696Z,1009.52
2023-06-29T05:16:41.330Z,1009.55
2023-06-29T05:17:41.302Z,1009.52
2023-06-29T05:18:41.259Z,1009.51
2023-06-29T05:19:41.266Z,1009.50
2023-06-29T05:20:41.253Z,1009.51
2023-06-29T05:21:41.277Z,1009.49
2023-06-29T05:22:41.242Z,1009.51
2023-06-29T05:23:41.207Z,1009.48
2023-06-29T05:24:41.194Z,1009.47
2023-06-29T05:25:41.488Z,1009.42
2023-06-29T05:26:41.175Z,1009.45
2023-06-29T05:27:41.171Z,1009.42
2023-06-29T05:28:42.844Z,1009.45
2023-06-29T05:29:42.140Z,1009.46
2023-06-29T05:30:41.147Z,1009.44
2023-06-29T05:31:41.141Z,1009.47
2023-06-29T05:32:41.207Z,1009.47
2023-06-29T05:33:41.101Z,1009.43
2023-06-29T05:34:41.089Z,1009.39
2023-06-29T05:35:41.203Z,1009.42
2023-06-29T05:36:41.061Z,1009.40
2023-06-29T05:37:41.052Z,1009.41
2023-06-29T05:38:41.074Z,1009.39
2023-06-29T05:39:41.030Z,1009.42
2023-06-29T05:40:41.166Z,1009.43
2023-06-29T05:41:41.007Z,1009.41
2023-06-29T05:42:40.991Z,1009.39
2023-06-29T05:43:40.985Z,1009.38
2023-06-29T05:44:40.969Z,1009.37
2023-06-29T05:45:41.025Z,1009.37
2023-06-29T05:46:40.955Z,1009.37
2023-06-29T05:47:40.959Z,1009.39
2023-06-29T05:48:40.927Z,1009.39
2023-06-29T05:49:40.923Z,1009.37
2023-06-29T05:50:41.040Z,1009.38
2023-06-29T05:51:40.902Z,1009.39
2023-06-29T05:52:40.890Z,1009.35
2023-06-29T05:53:40.900Z,1009.36
2023-06-29T05:54:40.886Z,1009.36
2023-06-29T05:55:40.869Z,1009.40
2023-06-29T05:56:40.845Z,1009.39
2023-06-29T05:57:40.852Z,1009.37
2023-06-29T05:58:40.821Z,1009.36
2023-06-29T05:59:40.816Z,1009.37
2023-06-29T06:00:40.838Z,1009.35
2023-06-29T06:01:40.822Z,1009.38
2023-06-29T06:02:40.801Z,1009.38
2023-06-29T06:03:40.819Z,1009.39
2023-06-29T06:04:40.756Z,1009.38
2023-06-29T06:05:40.773Z,1009.40
2023-06-29T06:06:40.733Z,1009.37
2023-06-29T06:07:40.860Z,1009.38
2023-06-29T06:08:40.719Z,1009.39
2023-06-29T06:09:40.702Z,1009.39
2023-06-29T06:10:40.738Z,1009.37
2023-06-29T06:11:40.677Z,1009.37
2023-06-29T06:12:40.696Z,1009.42
2023-06-29T06:13:40.651Z,1009.40
2023-06-29T06:14:40.644Z,1009.42
2023-06-29T06:15:40.694Z,1009.44
2023-06-29T06:16:40.661Z,1009.40
2023-06-29T06:17:40.709Z,1009.39
2023-06-29T06:18:40.600Z,1009.37
2023-06-29T06:19:40.605Z,1009.36
2023-06-29T06:20:40.591Z,1009.38
2023-06-29T06:21:40.569Z,1009.35
2023-06-29T06:22:40.572Z,1009.32
2023-06-29T06:23:40.549Z,1009.37
2023-06-29T06:24:40.528Z,1009.32
2023-06-29T06:25:40.543Z,1009.32
2023-06-29T06:26:40.871Z,1009.31
2023-06-29T06:27:40.563Z,1009.31
2023-06-29T06:28:40.485Z,1009.30
2023-06-29T06:29:40.488Z,1009.27
2023-06-29T06:30:40.460Z,1009.31
2023-06-29T06:31:40.503Z,1009.32
2023-06-29T06:32:40.581Z,1009.33
2023-06-29T06:33:40.429Z,1009.32
2023-06-29T06:34:40.415Z,1009.31
2023-06-29T06:35:40.435Z,1009.28
2023-06-29T06:36:40.408Z,1009.30
2023-06-29T06:37:40.404Z,1009.31
2023-06-29T06:38:50.218Z,1009.31
2023-06-29T06:39:41.381Z,1009.34
2023-06-29T06:40:40.369Z,1009.31
2023-06-29T06:41:40.341Z,1009.31
2023-06-29T06:42:40.349Z,1009.31
2023-06-29T06:43:40.315Z,1009.29
2023-06-29T06:44:40.296Z,1009.33
2023-06-29T06:45:40.293Z,1009.34
2023-06-29T06:46:40.323Z,1009.39
2023-06-29T06:47:40.304Z,1009.34
2023-06-29T06:48:40.262Z,1009.31
2023-06-29T06:49:40.251Z,1009.35
2023-06-29T06:50:40.288Z,1009.32
2023-06-29T06:51:40.233Z,1009.36
2023-06-29T06:52:40.246Z,1009.37
2023-06-29T06:53:40.216Z,1009.35
2023-06-29T06:54:40.190Z,1009.35
2023-06-29T06:55:40.177Z,1009.39
2023-06-29T06:56:40.183Z,1009.35
2023-06-29T06:57:40.168Z,1009.38
2023-06-29T06:58:40.268Z,1009.38
2023-06-29T06:59:40.148Z,1009.40
2023-06-29T07:00:40.181Z,1009.38
2023-06-29T07:01:40.133Z,1009.37
2023-06-29T07:02:40.248Z,1009.37
2023-06-29T07:03:40.090Z,1009.39
2023-06-29T07:04:40.073Z,1009.40
2023-06-29T07:05:40.078Z,1009.40
2023-06-29T07:06:40.074Z,1009.40
2023-06-29T07:07:40.178Z,1009.43
2023-06-29T07:08:40.029Z,1009.41
2023-06-29T07:09:40.031Z,1009.42
2023-06-29T07:10:40.020Z,1009.39
2023-06-29T07:11:40.022Z,1009.39
2023-06-29T07:12:39.991Z,1009.36
2023-06-29T07:13:39.975Z,1009.38
2023-06-29T07:14:40.033Z,1009.34
2023-06-29T07:15:39.958Z,1009.34
2023-06-29T07:16:40.045Z,1009.34
2023-06-29T07:17:39.965Z,1009.34
2023-06-29T07:18:39.929Z,1009.37
2023-06-29T07:21:40.070Z,1009.29
2023-06-29T07:24:39.877Z,1009.27
2023-06-29T07:25:39.853Z,1009.23
2023-06-29T07:26:39.855Z,1009.23
2023-06-29T07:27:39.829Z,1009.28
2023-06-29T07:28:39.814Z,1009.29
2023-06-29T07:29:39.806Z,1009.26
2023-06-29T07:30:40.029Z,1009.27
2023-06-29T07:31:39.798Z,1009.26
2023-06-29T07:32:39.804Z,1009.28
2023-06-29T07:33:39.758Z,1009.24
2023-06-29T07:34:39.752Z,1009.27
2023-06-29T07:35:39.741Z,1009.28
2023-06-29T07:36:39.740Z,1009.23
2023-06-29T07:37:39.717Z,1009.24
2023-06-29T07:38:39.713Z,1009.25
2023-06-29T07:39:39.690Z,1009.25
2023-06-29T07:40:39.681Z,1009.27
2023-06-29T07:41:39.697Z,1009.24
2023-06-29T07:42:40.630Z,1009.22
2023-06-29T07:43:39.643Z,1009.24
2023-06-29T07:44:39.640Z,1009.25
2023-06-29T07:45:39.623Z,1009.27
2023-06-29T07:46:39.697Z,1009.27
2023-06-29T07:47:39.716Z,1009.27
2023-06-29T07:48:39.705Z,1009.28
2023-06-29T07:49:39.580Z,1009.23
2023-06-29T07:50:39.575Z,1009.25
2023-06-29T07:51:39.567Z,1009.28
2023-06-29T07:52:39.590Z,1009.23
2023-06-29T07:53:39.547Z,1009.26
2023-06-29T07:54:39.549Z,1009.25
2023-06-29T07:55:39.526Z,1009.20
2023-06-29T07:58:40.294Z,1009.29
2023-06-29T07:59:39.478Z,1009.35
2023-06-29T08:00:39.472Z,1009.25
2023-06-29T08:01:39.518Z,1009.23
2023-06-29T08:02:39.520Z,1009.23
2023-06-29T08:03:55.873Z,1009.26
2023-06-29T08:07:39.532Z,1009.22
2023-06-29T08:08:39.533Z,1009.19
2023-06-29T08:09:39.370Z,1009.22
2023-06-29T08:10:39.374Z,1009.20
2023-06-29T08:11:39.344Z,1009.17
2023-06-29T08:12:39.344Z,1009.19
2023-06-29T08:13:39.325Z,1009.19
2023-06-29T08:14:39.363Z,1009.22
2023-06-29T08:15:39.298Z,1009.17
2023-06-29T08:16:39.336Z,1009.17
2023-06-29T08:17:39.372Z,1009.18
2023-06-29T08:18:39.361Z,1009.18
2023-06-29T08:19:39.259Z,1009.11
2023-06-29T08:20:39.253Z,1009.11
2023-06-29T08:21:39.264Z,1009.09
2023-06-29T08:22:39.228Z,1009.16
2023-06-29T08:23:39.209Z,1009.14
2023-06-29T08:24:39.207Z,1009.14
2023-06-29T08:25:39.200Z,1009.11
2023-06-29T08:26:39.215Z,1009.12
2023-06-29T08:27:39.177Z,1009.10
2023-06-29T08:28:39.156Z,1009.13
2023-06-29T08:29:39.150Z,1009.13
2023-06-29T08:30:39.146Z,1009.16
2023-06-29T08:31:39.169Z,1009.12
2023-06-29T08:32:39.191Z,1009.11
2023-06-29T08:33:39.138Z,1009.11
2023-06-29T08:34:39.113Z,1009.14
2023-06-29T08:35:39.074Z,1009.16
2023-06-29T08:36:39.081Z,1009.12
2023-06-29T08:37:39.053Z,1009.17
2023-06-29T08:38:39.054Z,1009.14
2023-06-29T08:39:39.049Z,1009.15
2023-06-29T08:40:39.035Z,1009.15
2023-06-29T08:41:39.027Z,1009.12
2023-06-29T08:42:39.014Z,1009.11
2023-06-29T08:43:38.998Z,1009.12
2023-06-29T08:44:38.985Z,1009.12
2023-06-29T08:45:38.975Z,1009.14
2023-06-29T08:46:39.033Z,1009.13
2023-06-29T08:47:38.966Z,1009.12
2023-06-29T08:48:38.934Z,1009.14
2023-06-29T08:49:38.923Z,1009.12
2023-06-29T08:50:38.993Z,1009.03
2023-06-29T08:51:38.910Z,1009.09
2023-06-29T08:52:38.906Z,1009.06
2023-06-29T08:53:38.930Z,1009.06
2023-06-29T08:54:38.869Z,1009.06
2023-06-29T08:55:38.848Z,1009.03
2023-06-29T08:56:38.876Z,1009.03
2023-06-29T08:57:38.835Z,1009.01
2023-06-29T08:58:38.819Z,1009.02
2023-06-29T08:59:38.808Z,1009.04
2023-06-29T09:00:38.814Z,1009.01
2023-06-29T09:01:38.914Z,1009.00
2023-06-29T09:02:38.910Z,1009.00
2023-06-29T09:03:38.918Z,1008.97
2023-06-29T09:04:38.766Z,1008.99
2023-06-29T09:05:38.759Z,1009.01
2023-06-29T09:06:38.765Z,1008.96
2023-06-29T09:07:38.860Z,1009.04
2023-06-29T09:08:38.768Z,1009.03
2023-06-29T09:09:38.693Z,1009.02
2023-06-29T09:10:38.696Z,1009.02
2023-06-29T09:11:39.144Z,1009.02
2023-06-29T09:12:38.682Z,1009.01
2023-06-29T09:13:38.655Z,1008.99
2023-06-29T09:14:38.662Z,1009.05
2023-06-29T09:15:38.754Z,1008.92
2023-06-29T09:16:38.751Z,1008.93
2023-06-29T09:17:38.665Z,1008.86
2023-06-29T09:18:38.618Z,1008.91
2023-06-29T09:19:38.614Z,1008.88
2023-06-29T09:20:38.579Z,1008.85
2023-06-29T09:21:38.568Z,1008.82
2023-06-29T09:22:38.579Z,1008.83
2023-06-29T09:23:38.619Z,1008.88
2023-06-29T09:24:46.411Z,1008.83
2023-06-29T09:25:39.664Z,1008.80
2023-06-29T09:26:38.523Z,1008.84
2023-06-29T09:27:38.526Z,1008.80
2023-06-29T09:28:38.497Z,1008.84
2023-06-29T09:29:40.237Z,1008.79
2023-06-29T09:30:38.690Z,1008.80
2023-06-29T09:31:38.500Z,1008.79
2023-06-29T09:32:38.516Z,1008.78
2023-06-29T09:33:38.446Z,1008.82
2023-06-29T09:34:38.438Z,1008.86
2023-06-29T09:35:38.466Z,1008.82
2023-06-29T09:36:38.419Z,1008.85
2023-06-29T09:37:38.459Z,1008.79
2023-06-29T09:38:38.416Z,1008.84
2023-06-29T09:39:38.375Z,1008.78
2023-06-29T09:40:38.372Z,1008.74
2023-06-29T09:41:38.359Z,1008.74
2023-06-29T09:42:38.382Z,1008.71
2023-06-29T09:43:38.332Z,1008.77
2023-06-29T09:44:38.326Z,1008.73
2023-06-29T09:45:38.342Z,1008.71
2023-06-29T09:46:38.508Z,1008.71
2023-06-29T09:49:38.364Z,1008.82
2023-06-29T09:50:38.449Z,1008.75
2023-06-29T09:51:38.244Z,1008.70
2023-06-29T09:52:38.313Z,1008.77
2023-06-29T09:53:38.275Z,1008.76
2023-06-29T09:54:38.237Z,1008.78
2023-06-29T09:55:38.202Z,1008.74
2023-06-29T09:56:38.201Z,1008.69
2023-06-29T09:57:38.197Z,1008.68
2023-06-29T09:58:38.170Z,1008.73
2023-06-29T09:59:38.155Z,1008.74
2023-06-29T10:00:38.220Z,1008.69
2023-06-29T10:01:38.189Z,1008.69
2023-06-29T10:02:38.213Z,1008.67
2023-06-29T10:03:38.147Z,1008.67
2023-06-29T10:04:38.197Z,1008.65
2023-06-29T10:05:38.099Z,1008.61
2023-06-29T10:06:38.091Z,1008.60
2023-06-29T10:07:38.208Z,1008.63
2023-06-29T10:08:38.079Z,1008.62
2023-06-29T10:09:38.063Z,1008.64
2023-06-29T10:10:38.069Z,1008.63
2023-06-29T10:11:38.062Z,1008.68
2023-06-29T10:12:38.033Z,1008.72
2023-06-29T10:13:38.014Z,1008.80
2023-06-29T10:14:38.001Z,1008.72
2023-06-29T10:15:37.993Z,1008.66
2023-06-29T10:16:38.004Z,1008.63
2023-06-29T10:17:37.999Z,1008.64
2023-06-29T10:18:37.963Z,1008.59
2023-06-29T10:19:37.985Z,1008.57
2023-06-29T10:20:37.941Z,1008.58
2023-06-29T10:21:37.935Z,1008.53
2023-06-29T10:22:37.928Z,1008.54
2023-06-29T10:23:37.908Z,1008.58
2023-06-29T10:24:37.919Z,1008.57
2023-06-29T10:25:37.886Z,1008.55
2023-06-29T10:26:37.902Z,1008.48
2023-06-29T10:27:37.886Z,1008.51
2023-06-29T10:28:37.875Z,1008.55
2023-06-29T10:29:37.843Z,1008.49
2023-06-29T10:30:37.871Z,1008.51
2023-06-29T10:31:37.854Z,1008.45
2023-06-29T10:32:37.848Z,1008.47
2023-06-29T10:33:37.816Z,1008.48
2023-06-29T10:34:37.789Z,1008.43
2023-06-29T10:35:37.784Z,1008.47
2023-06-29T10:36:37.812Z,1008.43
2023-06-29T10:37:37.793Z,1008.41
2023-06-29T10:38:37.749Z,1008.41
2023-06-29T10:39:37.734Z,1008.39
2023-06-29T10:40:37.726Z,1008.39
2023-06-29T10:41:37.721Z,1008.38
2023-06-29T10:42:37.728Z,1008.38
2023-06-29T10:43:37.721Z,1008.40
2023-06-29T10:44:37.681Z,1008.37
2023-06-29T10:45:37.674Z,1008.34
2023-06-29T10:46:37.715Z,1008.37
2023-06-29T10:47:37.666Z,1008.39
2023-06-29T10:48:48.422Z,1008.37
2023-06-29T10:49:38.625Z,1008.41
2023-06-29T10:50:37.619Z,1008.36
2023-06-29T10:51:37.616Z,1008.35
2023-06-29T10:52:37.605Z,1008.35
2023-06-29T10:53:37.587Z,1008.35
2023-06-29T10:54:37.668Z,1008.32
2023-06-29T10:55:37.565Z,1008.30
2023-06-29T10:56:37.565Z,1008.27
2023-06-29T10:57:37.542Z,1008.29
2023-06-29T10:58:37.601Z,1008.25
2023-06-29T10:59:37.528Z,1008.24
2023-06-29T11:00:37.533Z,1008.23
2023-06-29T11:01:37.512Z,1008.23
2023-06-29T11:02:37.527Z,1008.23
2023-06-29T11:03:37.553Z,1008.22
2023-06-29T11:04:37.477Z,1008.24
2023-06-29T11:05:37.478Z,1008.22
2023-06-29T11:06:37.534Z,1008.24
2023-06-29T11:07:37.538Z,1008.28
2023-06-29T11:08:37.457Z,1008.24
2023-06-29T11:09:37.423Z,1008.24
2023-06-29T11:10:37.410Z,1008.30
2023-06-29T11:11:37.414Z,1008.28
2023-06-29T11:12:37.393Z,1008.24
2023-06-29T11:13:37.416Z,1008.25
2023-06-29T11:14:37.389Z,1008.25
2023-06-29T11:15:37.409Z,1008.25
2023-06-29T11:16:37.349Z,1008.26
2023-06-29T11:17:37.385Z,1008.28
2023-06-29T11:18:37.347Z,1008.27
2023-06-29T11:19:37.306Z,1008.26
2023-06-29T11:20:37.316Z,1008.25
2023-06-29T11:21:37.324Z,1008.26
2023-06-29T11:22:37.290Z,1008.26
2023-06-29T11:23:37.278Z,1008.33
2023-06-29T11:24:37.356Z,1008.31
2023-06-29T11:25:37.241Z,1008.32
2023-06-29T11:26:37.778Z,1008.31
2023-06-29T11:27:37.220Z,1008.30
2023-06-29T11:28:37.229Z,1008.31
2023-06-29T11:29:37.210Z,1008.32
2023-06-29T11:30:37.207Z,1008.32
2023-06-29T11:31:37.275Z,1008.26
2023-06-29T11:32:37.214Z,1008.30
2023-06-29T11:33:37.166Z,1008.27
2023-06-29T11:34:37.142Z,1008.28
2023-06-29T11:35:37.190Z,1008.26
2023-06-29T11:36:37.126Z,1008.19
2023-06-29T11:37:37.108Z,1008.20
2023-06-29T11:38:37.152Z,1008.20
2023-06-29T11:39:37.089Z,1008.22
2023-06-29T11:40:37.081Z,1008.22
2023-06-29T11:41:37.070Z,1008.21
2023-06-29T11:42:37.261Z,1008.26
2023-06-29T11:43:37.133Z,1008.23
2023-06-29T11:44:37.040Z,1008.21
2023-06-29T11:45:37.029Z,1008.22
2023-06-29T11:46:37.183Z,1008.22
2023-06-29T11:47:37.062Z,1008.21
2023-06-29T11:48:37.023Z,1008.21
2023-06-29T11:49:36.992Z,1008.17
2023-06-29T11:50:37.015Z,1008.18
2023-06-29T11:51:36.958Z,1008.20
2023-06-29T11:52:36.973Z,1008.18
2023-06-29T11:53:36.950Z,1008.11
2023-06-29T11:54:36.965Z,1008.10
2023-06-29T11:55:36.924Z,1008.07
2023-06-29T11:56:36.939Z,1008.08
2023-06-29T11:57:36.956Z,1008.11
2023-06-29T11:58:36.897Z,1008.05
2023-06-29T11:59:36.907Z,1008.06
2023-06-29T12:00:36.936Z,1008.08
2023-06-29T12:01:36.867Z,1008.10
2023-06-29T12:02:36.943Z,1008.08
2023-06-29T12:03:36.965Z,1008.09
2023-06-29T12:04:37.011Z,1008.09
2023-06-29T12:05:36.803Z,1008.06
2023-06-29T12:06:36.793Z,1008.00
2023-06-29T12:07:36.977Z,1008.03
2023-06-29T12:08:36.966Z,1008.01
2023-06-29T12:09:36.863Z,1008.00
2023-06-29T12:10:36.774Z,1008.00
2023-06-29T12:11:36.746Z,1007.97
2023-06-29T12:12:36.730Z,1007.98
2023-06-29T12:13:36.751Z,1007.97
2023-06-29T12:14:36.720Z,1007.94
2023-06-29T12:15:36.803Z,1007.94
2023-06-29T12:18:37.933Z,1007.94